Heidenheimer, Texas
Current Conditions -  °F | °C
As of 3:35 PM on Thursday 18 Dec 2014 (Local Time) from KTPL Reporting Station
Overcast Overcast  
Wind Chill: 55°   Ceiling: 1200
Heat Index: 55°   Visibility: 9mi
Dew Point: 46°   Wind: 10mph
Humidity: 72%   Direction: 40°NE
Pressure: 30.07"   Gusts: NA
Location:  31.02°N, 97.3°W
Report Text: KTPL 182135Z AUTO 04009KT 9SM OVC012 13/08 A3007 RMK AO1
Loading
Personal Weather Stations






























Interactive Weather Map New forecast layout! Learn more

10-Day Weather Forecast

Advertisements
Track Severe Weather on mobile